sensor_id;sensor_type;location;lat;lon;timestamp;P1;durP1;ratioP1;P2;durP2;ratioP2
72388;SDS011;60566;48.062;9.930;2024-01-10T00:02:18;37.80;;;15.32;;
72388;SDS011;60566;48.062;9.930;2024-01-10T00:04:45;30.35;;;14.55;;
72388;SDS011;60566;48.062;9.930;2024-01-10T00:07:10;33.55;;;14.25;;
72388;SDS011;60566;48.062;9.930;2024-01-10T00:09:36;30.67;;;15.20;;
72388;SDS011;60566;48.062;9.930;2024-01-10T00:12:01;29.85;;;14.73;;
72388;SDS011;60566;48.062;9.930;2024-01-10T00:14:26;33.78;;;15.70;;
72388;SDS011;60566;48.062;9.930;2024-01-10T00:16:52;29.40;;;14.50;;
72388;SDS011;60566;48.062;9.930;2024-01-10T00:19:17;34.40;;;13.90;;
72388;SDS011;60566;48.062;9.930;2024-01-10T00:21:44;34.10;;;16.27;;
72388;SDS011;60566;48.062;9.930;2024-01-10T00:24:09;40.35;;;14.52;;
72388;SDS011;60566;48.062;9.930;2024-01-10T00:26:35;34.10;;;15.90;;
72388;SDS011;60566;48.062;9.930;2024-01-10T00:29:00;30.13;;;15.52;;
72388;SDS011;60566;48.062;9.930;2024-01-10T00:31:26;28.65;;;12.45;;
72388;SDS011;60566;48.062;9.930;2024-01-10T00:33:51;35.47;;;14.95;;
72388;SDS011;60566;48.062;9.930;2024-01-10T00:36:17;32.65;;;14.93;;
72388;SDS011;60566;48.062;9.930;2024-01-10T00:38:44;32.38;;;15.30;;
72388;SDS011;60566;48.062;9.930;2024-01-10T00:41:09;34.33;;;16.73;;
72388;SDS011;60566;48.062;9.930;2024-01-10T00:43:34;38.90;;;16.92;;
72388;SDS011;60566;48.062;9.930;2024-01-10T00:46:00;30.52;;;14.45;;
72388;SDS011;60566;48.062;9.930;2024-01-10T00:48:25;35.15;;;15.02;;
72388;SDS011;60566;48.062;9.930;2024-01-10T00:50:51;37.28;;;14.68;;
72388;SDS011;60566;48.062;9.930;2024-01-10T00:53:16;31.95;;;14.32;;
72388;SDS011;60566;48.062;9.930;2024-01-10T00:55:43;36.22;;;15.77;;
72388;SDS011;60566;48.062;9.930;2024-01-10T00:58:08;31.25;;;15.15;;
72388;SDS011;60566;48.062;9.930;2024-01-10T01:00:34;35.60;;;13.35;;
72388;SDS011;60566;48.062;9.930;2024-01-10T01:02:59;34.60;;;15.25;;
72388;SDS011;60566;48.062;9.930;2024-01-10T01:05:24;29.48;;;14.75;;
72388;SDS011;60566;48.062;9.930;2024-01-10T01:07:50;30.17;;;14.75;;
72388;SDS011;60566;48.062;9.930;2024-01-10T01:10:15;28.60;;;13.50;;
72388;SDS011;60566;48.062;9.930;2024-01-10T01:12:42;30.67;;;14.82;;
72388;SDS011;60566;48.062;9.930;2024-01-10T01:15:08;37.17;;;15.40;;
72388;SDS011;60566;48.062;9.930;2024-01-10T01:17:34;37.10;;;17.20;;
72388;SDS011;60566;48.062;9.930;2024-01-10T01:19:59;36.58;;;18.02;;
72388;SDS011;60566;48.062;9.930;2024-01-10T01:22:24;35.65;;;16.15;;
72388;SDS011;60566;48.062;9.930;2024-01-10T01:24:50;42.60;;;18.75;;
72388;SDS011;60566;48.062;9.930;2024-01-10T01:27:18;34.50;;;16.00;;
72388;SDS011;60566;48.062;9.930;2024-01-10T01:29:44;40.40;;;16.88;;
72388;SDS011;60566;48.062;9.930;2024-01-10T01:32:15;30.38;;;15.48;;
72388;SDS011;60566;48.062;9.930;2024-01-10T01:34:40;33.17;;;15.60;;
72388;SDS011;60566;48.062;9.930;2024-01-10T01:37:05;32.45;;;15.98;;
72388;SDS011;60566;48.062;9.930;2024-01-10T01:39:31;37.78;;;15.88;;
72388;SDS011;60566;48.062;9.930;2024-01-10T01:41:56;41.58;;;15.82;;
72388;SDS011;60566;48.062;9.930;2024-01-10T01:44:22;35.78;;;17.35;;
72388;SDS011;60566;48.062;9.930;2024-01-10T01:46:52;41.03;;;16.58;;
72388;SDS011;60566;48.062;9.930;2024-01-10T01:49:17;38.05;;;16.13;;
72388;SDS011;60566;48.062;9.930;2024-01-10T01:51:43;36.47;;;17.60;;
72388;SDS011;60566;48.062;9.930;2024-01-10T01:54:08;33.10;;;16.65;;
72388;SDS011;60566;48.062;9.930;2024-01-10T01:56:35;38.90;;;16.77;;
72388;SDS011;60566;48.062;9.930;2024-01-10T01:59:01;34.75;;;16.75;;
72388;SDS011;60566;48.062;9.930;2024-01-10T02:01:27;38.67;;;16.17;;
72388;SDS011;60566;48.062;9.930;2024-01-10T02:03:54;37.00;;;16.85;;
72388;SDS011;60566;48.062;9.930;2024-01-10T02:06:20;36.35;;;15.18;;
72388;SDS011;60566;48.062;9.930;2024-01-10T02:08:45;36.22;;;15.93;;
72388;SDS011;60566;48.062;9.930;2024-01-10T02:11:11;30.95;;;15.45;;
72388;SDS011;60566;48.062;9.930;2024-01-10T02:13:36;33.03;;;17.17;;
72388;SDS011;60566;48.062;9.930;2024-01-10T02:16:03;39.70;;;16.98;;
72388;SDS011;60566;48.062;9.930;2024-01-10T02:18:29;35.95;;;15.60;;
72388;SDS011;60566;48.062;9.930;2024-01-10T02:20:55;34.70;;;16.38;;
72388;SDS011;60566;48.062;9.930;2024-01-10T02:23:21;39.70;;;17.70;;
72388;SDS011;60566;48.062;9.930;2024-01-10T02:25:50;44.05;;;16.98;;
72388;SDS011;60566;48.062;9.930;2024-01-10T02:28:16;33.33;;;17.33;;
72388;SDS011;60566;48.062;9.930;2024-01-10T02:30:41;36.20;;;16.15;;
72388;SDS011;60566;48.062;9.930;2024-01-10T02:33:07;35.38;;;16.02;;
72388;SDS011;60566;48.062;9.930;2024-01-10T02:35:32;38.85;;;16.15;;
72388;SDS011;60566;48.062;9.930;2024-01-10T02:37:58;38.80;;;16.92;;
72388;SDS011;60566;48.062;9.930;2024-01-10T02:40:23;32.90;;;16.23;;
72388;SDS011;60566;48.062;9.930;2024-01-10T02:42:50;37.13;;;16.05;;
72388;SDS011;60566;48.062;9.930;2024-01-10T02:45:15;47.30;;;19.33;;
72388;SDS011;60566;48.062;9.930;2024-01-10T02:47:41;35.05;;;16.48;;
72388;SDS011;60566;48.062;9.930;2024-01-10T02:50:06;34.03;;;17.00;;
72388;SDS011;60566;48.062;9.930;2024-01-10T02:52:32;42.90;;;16.88;;
72388;SDS011;60566;48.062;9.930;2024-01-10T02:54:58;34.67;;;16.92;;
72388;SDS011;60566;48.062;9.930;2024-01-10T02:57:23;32.47;;;16.10;;
72388;SDS011;60566;48.062;9.930;2024-01-10T02:59:50;38.13;;;17.67;;
72388;SDS011;60566;48.062;9.930;2024-01-10T03:02:16;34.15;;;15.82;;
72388;SDS011;60566;48.062;9.930;2024-01-10T03:04:41;39.40;;;16.50;;
72388;SDS011;60566;48.062;9.930;2024-01-10T03:07:07;35.70;;;17.17;;
72388;SDS011;60566;48.062;9.930;2024-01-10T03:09:32;28.60;;;13.75;;
72388;SDS011;60566;48.062;9.930;2024-01-10T03:11:58;38.92;;;16.00;;
72388;SDS011;60566;48.062;9.930;2024-01-10T03:14:23;40.63;;;18.92;;
72388;SDS011;60566;48.062;9.930;2024-01-10T03:16:50;31.52;;;14.82;;
72388;SDS011;60566;48.062;9.930;2024-01-10T03:19:15;36.65;;;15.77;;
72388;SDS011;60566;48.062;9.930;2024-01-10T03:21:41;33.80;;;17.17;;
72388;SDS011;60566;48.062;9.930;2024-01-10T03:24:06;35.05;;;16.60;;
72388;SDS011;60566;48.062;9.930;2024-01-10T03:26:32;39.75;;;15.70;;
72388;SDS011;60566;48.062;9.930;2024-01-10T03:28:58;39.08;;;17.75;;
72388;SDS011;60566;48.062;9.930;2024-01-10T03:31:23;36.25;;;18.13;;
72388;SDS011;60566;48.062;9.930;2024-01-10T03:33:50;37.85;;;17.02;;
72388;SDS011;60566;48.062;9.930;2024-01-10T03:36:18;39.35;;;16.38;;
72388;SDS011;60566;48.062;9.930;2024-01-10T03:38:43;38.42;;;16.35;;
72388;SDS011;60566;48.062;9.930;2024-01-10T03:41:12;40.13;;;15.15;;
72388;SDS011;60566;48.062;9.930;2024-01-10T03:43:38;35.60;;;16.77;;
72388;SDS011;60566;48.062;9.930;2024-01-10T03:46:03;33.97;;;15.95;;
72388;SDS011;60566;48.062;9.930;2024-01-10T03:48:29;41.70;;;17.67;;
72388;SDS011;60566;48.062;9.930;2024-01-10T03:50:55;34.25;;;17.23;;
72388;SDS011;60566;48.062;9.930;2024-01-10T03:53:21;36.17;;;17.23;;
72388;SDS011;60566;48.062;9.930;2024-01-10T03:55:46;37.60;;;18.10;;
72388;SDS011;60566;48.062;9.930;2024-01-10T03:58:12;37.00;;;15.57;;
72388;SDS011;60566;48.062;9.930;2024-01-10T04:00:37;38.30;;;15.45;;
72388;SDS011;60566;48.062;9.930;2024-01-10T04:03:02;36.53;;;16.88;;
72388;SDS011;60566;48.062;9.930;2024-01-10T04:05:28;36.75;;;16.52;;
72388;SDS011;60566;48.062;9.930;2024-01-10T04:07:55;40.65;;;17.92;;
72388;SDS011;60566;48.062;9.930;2024-01-10T04:10:20;38.15;;;17.52;;
72388;SDS011;60566;48.062;9.930;2024-01-10T04:12:45;36.13;;;17.60;;
72388;SDS011;60566;48.062;9.930;2024-01-10T04:15:11;41.10;;;15.68;;
72388;SDS011;60566;48.062;9.930;2024-01-10T04:17:37;38.38;;;17.10;;
72388;SDS011;60566;48.062;9.930;2024-01-10T04:20:03;37.45;;;17.00;;
72388;SDS011;60566;48.062;9.930;2024-01-10T04:22:29;42.60;;;16.65;;
72388;SDS011;60566;48.062;9.930;2024-01-10T04:24:56;36.78;;;16.55;;
72388;SDS011;60566;48.062;9.930;2024-01-10T04:27:22;34.50;;;15.10;;
72388;SDS011;60566;48.062;9.930;2024-01-10T04:29:47;38.22;;;19.05;;
72388;SDS011;60566;48.062;9.930;2024-01-10T04:32:13;35.00;;;15.70;;
72388;SDS011;60566;48.062;9.930;2024-01-10T04:34:38;36.15;;;16.23;;
72388;SDS011;60566;48.062;9.930;2024-01-10T04:37:04;34.45;;;17.48;;
72388;SDS011;60566;48.062;9.930;2024-01-10T04:39:29;33.50;;;14.55;;
72388;SDS011;60566;48.062;9.930;2024-01-10T04:41:56;33.10;;;16.63;;
72388;SDS011;60566;48.062;9.930;2024-01-10T04:44:21;42.20;;;16.27;;
72388;SDS011;60566;48.062;9.930;2024-01-10T04:46:47;39.30;;;15.20;;
72388;SDS011;60566;48.062;9.930;2024-01-10T04:49:12;34.55;;;15.57;;
72388;SDS011;60566;48.062;9.930;2024-01-10T04:51:37;33.00;;;15.95;;
72388;SDS011;60566;48.062;9.930;2024-01-10T04:54:04;36.60;;;16.33;;
72388;SDS011;60566;48.062;9.930;2024-01-10T04:56:29;34.55;;;15.18;;
72388;SDS011;60566;48.062;9.930;2024-01-10T04:58:56;33.95;;;17.23;;
72388;SDS011;60566;48.062;9.930;2024-01-10T05:01:21;39.28;;;17.35;;
72388;SDS011;60566;48.062;9.930;2024-01-10T05:03:47;39.50;;;17.80;;
72388;SDS011;60566;48.062;9.930;2024-01-10T05:06:12;37.42;;;17.13;;
72388;SDS011;60566;48.062;9.930;2024-01-10T05:08:37;40.85;;;15.98;;
72388;SDS011;60566;48.062;9.930;2024-01-10T05:11:03;39.15;;;14.70;;
72388;SDS011;60566;48.062;9.930;2024-01-10T05:13:29;38.50;;;16.52;;
72388;SDS011;60566;48.062;9.930;2024-01-10T05:15:55;43.30;;;18.08;;
72388;SDS011;60566;48.062;9.930;2024-01-10T05:18:21;40.72;;;17.00;;
72388;SDS011;60566;48.062;9.930;2024-01-10T05:20:46;38.42;;;15.82;;
72388;SDS011;60566;48.062;9.930;2024-01-10T05:23:12;37.72;;;16.45;;
72388;SDS011;60566;48.062;9.930;2024-01-10T05:25:37;37.50;;;14.75;;
72388;SDS011;60566;48.062;9.930;2024-01-10T05:28:03;38.88;;;14.70;;
72388;SDS011;60566;48.062;9.930;2024-01-10T05:30:29;36.80;;;16.88;;
72388;SDS011;60566;48.062;9.930;2024-01-10T05:32:56;44.20;;;16.70;;
72388;SDS011;60566;48.062;9.930;2024-01-10T05:35:21;37.75;;;17.15;;
72388;SDS011;60566;48.062;9.930;2024-01-10T05:37:47;44.58;;;17.67;;
72388;SDS011;60566;48.062;9.930;2024-01-10T05:40:12;35.08;;;14.80;;
72388;SDS011;60566;48.062;9.930;2024-01-10T05:42:37;37.50;;;14.30;;
72388;SDS011;60566;48.062;9.930;2024-01-10T05:45:03;36.92;;;15.02;;
72388;SDS011;60566;48.062;9.930;2024-01-10T05:47:29;40.92;;;15.70;;
72388;SDS011;60566;48.062;9.930;2024-01-10T05:49:56;37.30;;;14.90;;
72388;SDS011;60566;48.062;9.930;2024-01-10T05:52:21;41.70;;;16.17;;
72388;SDS011;60566;48.062;9.930;2024-01-10T05:54:47;46.40;;;17.83;;
72388;SDS011;60566;48.062;9.930;2024-01-10T05:57:15;45.92;;;15.57;;
72388;SDS011;60566;48.062;9.930;2024-01-10T05:59:41;38.03;;;15.45;;
72388;SDS011;60566;48.062;9.930;2024-01-10T06:02:06;38.42;;;16.00;;
72388;SDS011;60566;48.062;9.930;2024-01-10T06:04:32;38.08;;;14.73;;
72388;SDS011;60566;48.062;9.930;2024-01-10T06:06:59;39.92;;;16.85;;
72388;SDS011;60566;48.062;9.930;2024-01-10T06:09:24;41.33;;;16.63;;
72388;SDS011;60566;48.062;9.930;2024-01-10T06:11:50;45.40;;;17.40;;
72388;SDS011;60566;48.062;9.930;2024-01-10T06:14:15;38.40;;;16.38;;
72388;SDS011;60566;48.062;9.930;2024-01-10T06:16:41;43.00;;;17.25;;
72388;SDS011;60566;48.062;9.930;2024-01-10T06:19:06;37.00;;;15.55;;
72388;SDS011;60566;48.062;9.930;2024-01-10T06:21:31;40.17;;;15.30;;
72388;SDS011;60566;48.062;9.930;2024-01-10T06:23:58;41.53;;;15.82;;
72388;SDS011;60566;48.062;9.930;2024-01-10T06:26:24;42.45;;;15.60;;
72388;SDS011;60566;48.062;9.930;2024-01-10T06:28:49;51.13;;;18.02;;
72388;SDS011;60566;48.062;9.930;2024-01-10T06:31:14;34.67;;;15.25;;
72388;SDS011;60566;48.062;9.930;2024-01-10T06:33:40;34.92;;;16.52;;
72388;SDS011;60566;48.062;9.930;2024-01-10T06:36:05;42.80;;;15.63;;
72388;SDS011;60566;48.062;9.930;2024-01-10T06:38:31;38.30;;;14.13;;
72388;SDS011;60566;48.062;9.930;2024-01-10T06:40:58;40.13;;;16.42;;
72388;SDS011;60566;48.062;9.930;2024-01-10T06:43:23;39.80;;;15.23;;
72388;SDS011;60566;48.062;9.930;2024-01-10T06:45:49;38.60;;;15.07;;
72388;SDS011;60566;48.062;9.930;2024-01-10T06:48:14;39.03;;;14.15;;
72388;SDS011;60566;48.062;9.930;2024-01-10T06:50:40;36.55;;;14.95;;
72388;SDS011;60566;48.062;9.930;2024-01-10T06:53:05;38.25;;;14.88;;
72388;SDS011;60566;48.062;9.930;2024-01-10T06:55:31;38.03;;;16.23;;
72388;SDS011;60566;48.062;9.930;2024-01-10T06:57:58;36.33;;;16.15;;
72388;SDS011;60566;48.062;9.930;2024-01-10T07:00:23;44.00;;;17.50;;
72388;SDS011;60566;48.062;9.930;2024-01-10T07:02:49;35.67;;;15.90;;
72388;SDS011;60566;48.062;9.930;2024-01-10T07:05:14;45.97;;;18.58;;
72388;SDS011;60566;48.062;9.930;2024-01-10T07:07:40;34.70;;;15.20;;
72388;SDS011;60566;48.062;9.930;2024-01-10T07:10:06;41.60;;;16.05;;
72388;SDS011;60566;48.062;9.930;2024-01-10T07:12:32;34.00;;;15.93;;
72388;SDS011;60566;48.062;9.930;2024-01-10T07:15:00;38.53;;;15.50;;
72388;SDS011;60566;48.062;9.930;2024-01-10T07:17:25;37.97;;;17.80;;
72388;SDS011;60566;48.062;9.930;2024-01-10T07:19:50;35.13;;;16.80;;
72388;SDS011;60566;48.062;9.930;2024-01-10T07:22:16;31.60;;;14.32;;
72388;SDS011;60566;48.062;9.930;2024-01-10T07:24:41;35.90;;;14.13;;
72388;SDS011;60566;48.062;9.930;2024-01-10T07:27:07;35.63;;;13.60;;
72388;SDS011;60566;48.062;9.930;2024-01-10T07:29:32;41.20;;;16.45;;
72388;SDS011;60566;48.062;9.930;2024-01-10T07:31:59;40.70;;;17.77;;
72388;SDS011;60566;48.062;9.930;2024-01-10T07:34:24;32.47;;;13.95;;
72388;SDS011;60566;48.062;9.930;2024-01-10T07:36:50;29.02;;;13.18;;
72388;SDS011;60566;48.062;9.930;2024-01-10T07:39:15;36.45;;;14.18;;
72388;SDS011;60566;48.062;9.930;2024-01-10T07:41:40;35.95;;;15.38;;
72388;SDS011;60566;48.062;9.930;2024-01-10T07:44:06;27.73;;;13.25;;
72388;SDS011;60566;48.062;9.930;2024-01-10T07:46:32;40.78;;;15.80;;
72388;SDS011;60566;48.062;9.930;2024-01-10T07:48:58;39.38;;;16.27;;
72388;SDS011;60566;48.062;9.930;2024-01-10T07:51:24;40.55;;;17.30;;
72388;SDS011;60566;48.062;9.930;2024-01-10T07:53:49;35.60;;;17.60;;
72388;SDS011;60566;48.062;9.930;2024-01-10T07:56:14;37.75;;;16.80;;
72388;SDS011;60566;48.062;9.930;2024-01-10T07:58:40;44.45;;;17.23;;
72388;SDS011;60566;48.062;9.930;2024-01-10T08:01:05;36.50;;;16.80;;
72388;SDS011;60566;48.062;9.930;2024-01-10T08:03:31;37.83;;;16.60;;
72388;SDS011;60566;48.062;9.930;2024-01-10T08:05:57;39.15;;;16.17;;
72388;SDS011;60566;48.062;9.930;2024-01-10T08:08:23;38.47;;;16.75;;
72388;SDS011;60566;48.062;9.930;2024-01-10T08:10:48;40.47;;;15.30;;
72388;SDS011;60566;48.062;9.930;2024-01-10T08:13:14;42.63;;;17.55;;
72388;SDS011;60566;48.062;9.930;2024-01-10T08:15:39;41.67;;;16.90;;
72388;SDS011;60566;48.062;9.930;2024-01-10T08:18:04;33.72;;;15.23;;
72388;SDS011;60566;48.062;9.930;2024-01-10T08:20:30;41.17;;;17.17;;
72388;SDS011;60566;48.062;9.930;2024-01-10T08:22:57;42.30;;;16.58;;
72388;SDS011;60566;48.062;9.930;2024-01-10T08:25:22;40.78;;;15.70;;
72388;SDS011;60566;48.062;9.930;2024-01-10T08:27:47;42.45;;;14.30;;
72388;SDS011;60566;48.062;9.930;2024-01-10T08:30:13;38.55;;;15.98;;
72388;SDS011;60566;48.062;9.930;2024-01-10T08:32:38;39.72;;;16.27;;
72388;SDS011;60566;48.062;9.930;2024-01-10T08:35:04;41.63;;;15.85;;
72388;SDS011;60566;48.062;9.930;2024-01-10T08:37:30;37.47;;;14.75;;
72388;SDS011;60566;48.062;9.930;2024-01-10T08:39:56;41.80;;;14.65;;
72388;SDS011;60566;48.062;9.930;2024-01-10T08:42:22;33.33;;;16.45;;
72388;SDS011;60566;48.062;9.930;2024-01-10T08:44:47;35.97;;;15.32;;
72388;SDS011;60566;48.062;9.930;2024-01-10T08:47:13;41.35;;;14.93;;
72388;SDS011;60566;48.062;9.930;2024-01-10T08:49:38;42.55;;;15.60;;
72388;SDS011;60566;48.062;9.930;2024-01-10T08:52:04;41.97;;;15.32;;
72388;SDS011;60566;48.062;9.930;2024-01-10T08:54:30;39.03;;;16.38;;
72388;SDS011;60566;48.062;9.930;2024-01-10T08:56:59;39.47;;;17.25;;
72388;SDS011;60566;48.062;9.930;2024-01-10T08:59:27;38.30;;;15.25;;
72388;SDS011;60566;48.062;9.930;2024-01-10T09:01:53;41.95;;;15.68;;
72388;SDS011;60566;48.062;9.930;2024-01-10T09:04:18;33.78;;;15.60;;
72388;SDS011;60566;48.062;9.930;2024-01-10T09:06:44;50.92;;;18.73;;
72388;SDS011;60566;48.062;9.930;2024-01-10T09:09:09;41.22;;;16.48;;
72388;SDS011;60566;48.062;9.930;2024-01-10T09:11:34;36.03;;;15.68;;
72388;SDS011;60566;48.062;9.930;2024-01-10T09:14:01;48.88;;;16.83;;
72388;SDS011;60566;48.062;9.930;2024-01-10T09:16:26;35.33;;;16.27;;
72388;SDS011;60566;48.062;9.930;2024-01-10T09:18:53;38.17;;;16.08;;
72388;SDS011;60566;48.062;9.930;2024-01-10T09:21:19;33.38;;;13.98;;
72388;SDS011;60566;48.062;9.930;2024-01-10T09:23:44;38.05;;;15.57;;
72388;SDS011;60566;48.062;9.930;2024-01-10T09:26:10;42.75;;;17.30;;
72388;SDS011;60566;48.062;9.930;2024-01-10T09:28:35;39.97;;;16.98;;
72388;SDS011;60566;48.062;9.930;2024-01-10T09:31:02;40.00;;;16.13;;
72388;SDS011;60566;48.062;9.930;2024-01-10T09:33:27;45.50;;;16.27;;
72388;SDS011;60566;48.062;9.930;2024-01-10T09:35:53;43.67;;;16.45;;
72388;SDS011;60566;48.062;9.930;2024-01-10T09:38:18;40.63;;;17.15;;
72388;SDS011;60566;48.062;9.930;2024-01-10T09:40:44;40.58;;;16.48;;
72388;SDS011;60566;48.062;9.930;2024-01-10T09:43:09;43.40;;;17.98;;
72388;SDS011;60566;48.062;9.930;2024-01-10T09:45:35;42.45;;;16.08;;
72388;SDS011;60566;48.062;9.930;2024-01-10T09:48:01;41.13;;;17.15;;
72388;SDS011;60566;48.062;9.930;2024-01-10T09:50:27;42.83;;;18.00;;
72388;SDS011;60566;48.062;9.930;2024-01-10T09:52:53;49.08;;;19.42;;
72388;SDS011;60566;48.062;9.930;2024-01-10T09:55:23;48.05;;;17.38;;
72388;SDS011;60566;48.062;9.930;2024-01-10T09:57:49;41.58;;;17.90;;
72388;SDS011;60566;48.062;9.930;2024-01-10T10:00:14;45.92;;;16.80;;
72388;SDS011;60566;48.062;9.930;2024-01-10T10:02:41;43.67;;;17.13;;
72388;SDS011;60566;48.062;9.930;2024-01-10T10:05:10;44.85;;;17.58;;
72388;SDS011;60566;48.062;9.930;2024-01-10T10:07:45;46.30;;;16.70;;
72388;SDS011;60566;48.062;9.930;2024-01-10T10:10:11;49.63;;;16.77;;
72388;SDS011;60566;48.062;9.930;2024-01-10T10:12:43;52.53;;;18.38;;
72388;SDS011;60566;48.062;9.930;2024-01-10T10:15:10;48.90;;;17.52;;
72388;SDS011;60566;48.062;9.930;2024-01-10T10:17:36;51.05;;;19.05;;
72388;SDS011;60566;48.062;9.930;2024-01-10T10:20:03;49.53;;;16.73;;
72388;SDS011;60566;48.062;9.930;2024-01-10T10:22:30;61.00;;;19.05;;
72388;SDS011;60566;48.062;9.930;2024-01-10T10:24:55;47.40;;;18.58;;
72388;SDS011;60566;48.062;9.930;2024-01-10T10:27:21;49.97;;;18.10;;
72388;SDS011;60566;48.062;9.930;2024-01-10T10:29:46;49.78;;;19.27;;
72388;SDS011;60566;48.062;9.930;2024-01-10T10:32:12;52.08;;;19.52;;
72388;SDS011;60566;48.062;9.930;2024-01-10T10:34:37;54.22;;;19.17;;
72388;SDS011;60566;48.062;9.930;2024-01-10T10:37:03;52.65;;;17.55;;
72388;SDS011;60566;48.062;9.930;2024-01-10T10:39:30;49.92;;;18.55;;
72388;SDS011;60566;48.062;9.930;2024-01-10T10:41:55;43.92;;;17.35;;
72388;SDS011;60566;48.062;9.930;2024-01-10T10:44:22;46.67;;;17.73;;
72388;SDS011;60566;48.062;9.930;2024-01-10T10:46:49;54.70;;;20.27;;
72388;SDS011;60566;48.062;9.930;2024-01-10T10:49:14;49.38;;;18.38;;
72388;SDS011;60566;48.062;9.930;2024-01-10T10:51:40;51.55;;;19.02;;
72388;SDS011;60566;48.062;9.930;2024-01-10T10:54:06;50.38;;;18.85;;
72388;SDS011;60566;48.062;9.930;2024-01-10T10:56:34;52.00;;;18.85;;
72388;SDS011;60566;48.062;9.930;2024-01-10T10:59:01;52.50;;;18.63;;
72388;SDS011;60566;48.062;9.930;2024-01-10T11:01:26;59.20;;;19.17;;
72388;SDS011;60566;48.062;9.930;2024-01-10T11:03:52;54.65;;;18.83;;
72388;SDS011;60566;48.062;9.930;2024-01-10T11:06:18;61.30;;;18.52;;
72388;SDS011;60566;48.062;9.930;2024-01-10T11:08:44;52.05;;;18.42;;
72388;SDS011;60566;48.062;9.930;2024-01-10T11:11:14;43.95;;;16.33;;
72388;SDS011;60566;48.062;9.930;2024-01-10T11:14:01;61.33;;;18.92;;
72388;SDS011;60566;48.062;9.930;2024-01-10T11:16:46;58.35;;;19.17;;
72388;SDS011;60566;48.062;9.930;2024-01-10T11:19:30;51.20;;;18.95;;
72388;SDS011;60566;48.062;9.930;2024-01-10T11:22:17;57.22;;;18.20;;
72388;SDS011;60566;48.062;9.930;2024-01-10T11:24:52;52.88;;;19.38;;
72388;SDS011;60566;48.062;9.930;2024-01-10T11:27:18;55.03;;;21.05;;
72388;SDS011;60566;48.062;9.930;2024-01-10T11:29:45;58.47;;;20.27;;
72388;SDS011;60566;48.062;9.930;2024-01-10T11:32:12;58.38;;;21.13;;
72388;SDS011;60566;48.062;9.930;2024-01-10T11:34:42;47.38;;;16.90;;
72388;SDS011;60566;48.062;9.930;2024-01-10T11:37:14;52.38;;;18.48;;
72388;SDS011;60566;48.062;9.930;2024-01-10T11:39:41;59.83;;;21.48;;
72388;SDS011;60566;48.062;9.930;2024-01-10T11:42:07;61.72;;;19.38;;
72388;SDS011;60566;48.062;9.930;2024-01-10T11:44:32;55.45;;;18.58;;
72388;SDS011;60566;48.062;9.930;2024-01-10T11:46:59;57.33;;;20.25;;
72388;SDS011;60566;48.062;9.930;2024-01-10T11:49:25;54.88;;;18.40;;
72388;SDS011;60566;48.062;9.930;2024-01-10T11:51:52;53.55;;;17.55;;
72388;SDS011;60566;48.062;9.930;2024-01-10T11:54:38;56.70;;;20.33;;
72388;SDS011;60566;48.062;9.930;2024-01-10T11:57:07;49.05;;;18.73;;
72388;SDS011;60566;48.062;9.930;2024-01-10T11:59:33;50.95;;;19.23;;
72388;SDS011;60566;48.062;9.930;2024-01-10T12:02:01;44.80;;;16.13;;
72388;SDS011;60566;48.062;9.930;2024-01-10T12:04:26;48.67;;;15.80;;
72388;SDS011;60566;48.062;9.930;2024-01-10T12:06:51;42.03;;;16.00;;
72388;SDS011;60566;48.062;9.930;2024-01-10T12:09:17;59.03;;;19.25;;
72388;SDS011;60566;48.062;9.930;2024-01-10T12:11:43;51.80;;;19.73;;
72388;SDS011;60566;48.062;9.930;2024-01-10T12:14:08;54.13;;;19.08;;
72388;SDS011;60566;48.062;9.930;2024-01-10T12:16:34;56.33;;;18.80;;
72388;SDS011;60566;48.062;9.930;2024-01-10T12:19:01;47.47;;;17.52;;
72388;SDS011;60566;48.062;9.930;2024-01-10T12:21:26;56.33;;;17.83;;
72388;SDS011;60566;48.062;9.930;2024-01-10T12:23:51;54.05;;;19.30;;
72388;SDS011;60566;48.062;9.930;2024-01-10T12:26:17;55.15;;;18.48;;
72388;SDS011;60566;48.062;9.930;2024-01-10T12:28:53;49.50;;;18.15;;
72388;SDS011;60566;48.062;9.930;2024-01-10T12:31:18;45.60;;;17.02;;
72388;SDS011;60566;48.062;9.930;2024-01-10T12:33:44;49.47;;;15.48;;
72388;SDS011;60566;48.062;9.930;2024-01-10T12:36:11;42.15;;;15.27;;
72388;SDS011;60566;48.062;9.930;2024-01-10T12:38:36;50.85;;;15.55;;
72388;SDS011;60566;48.062;9.930;2024-01-10T12:41:03;43.33;;;15.07;;
72388;SDS011;60566;48.062;9.930;2024-01-10T12:43:29;45.72;;;15.20;;
72388;SDS011;60566;48.062;9.930;2024-01-10T12:46:05;47.42;;;15.80;;
72388;SDS011;60566;48.062;9.930;2024-01-10T12:48:30;48.15;;;15.27;;
72388;SDS011;60566;48.062;9.930;2024-01-10T12:50:56;37.58;;;12.95;;
72388;SDS011;60566;48.062;9.930;2024-01-10T12:53:23;39.13;;;15.73;;
72388;SDS011;60566;48.062;9.930;2024-01-10T12:55:49;42.65;;;14.60;;
72388;SDS011;60566;48.062;9.930;2024-01-10T12:58:16;45.00;;;15.50;;
72388;SDS011;60566;48.062;9.930;2024-01-10T13:00:42;48.58;;;15.13;;
72388;SDS011;60566;48.062;9.930;2024-01-10T13:03:07;44.10;;;15.48;;
72388;SDS011;60566;48.062;9.930;2024-01-10T13:05:32;44.55;;;13.90;;
72388;SDS011;60566;48.062;9.930;2024-01-10T13:07:58;43.35;;;15.40;;
72388;SDS011;60566;48.062;9.930;2024-01-10T13:10:24;51.50;;;17.23;;
72388;SDS011;60566;48.062;9.930;2024-01-10T13:12:50;50.92;;;16.27;;
72388;SDS011;60566;48.062;9.930;2024-01-10T13:15:15;47.47;;;16.23;;
72388;SDS011;60566;48.062;9.930;2024-01-10T13:17:41;43.85;;;14.63;;
72388;SDS011;60566;48.062;9.930;2024-01-10T13:20:06;45.22;;;16.00;;
72388;SDS011;60566;48.062;9.930;2024-01-10T13:22:32;45.55;;;15.73;;
72388;SDS011;60566;48.062;9.930;2024-01-10T13:24:58;40.38;;;16.98;;
72388;SDS011;60566;48.062;9.930;2024-01-10T13:27:26;42.85;;;16.05;;
72388;SDS011;60566;48.062;9.930;2024-01-10T13:29:51;45.88;;;15.50;;
72388;SDS011;60566;48.062;9.930;2024-01-10T13:32:23;50.65;;;16.65;;
72388;SDS011;60566;48.062;9.930;2024-01-10T13:34:49;46.47;;;15.90;;
72388;SDS011;60566;48.062;9.930;2024-01-10T13:37:14;41.60;;;15.48;;
72388;SDS011;60566;48.062;9.930;2024-01-10T13:39:40;44.45;;;16.42;;
72388;SDS011;60566;48.062;9.930;2024-01-10T13:42:06;48.10;;;16.33;;
72388;SDS011;60566;48.062;9.930;2024-01-10T13:44:33;44.08;;;16.00;;
72388;SDS011;60566;48.062;9.930;2024-01-10T13:46:58;39.53;;;14.60;;
72388;SDS011;60566;48.062;9.930;2024-01-10T13:49:23;39.72;;;13.20;;
72388;SDS011;60566;48.062;9.930;2024-01-10T13:51:49;37.35;;;13.73;;
72388;SDS011;60566;48.062;9.930;2024-01-10T13:54:14;37.83;;;14.02;;
72388;SDS011;60566;48.062;9.930;2024-01-10T13:56:40;39.65;;;14.27;;
72388;SDS011;60566;48.062;9.930;2024-01-10T13:59:05;45.83;;;15.18;;
72388;SDS011;60566;48.062;9.930;2024-01-10T14:01:32;47.83;;;13.57;;
72388;SDS011;60566;48.062;9.930;2024-01-10T14:03:57;44.47;;;13.70;;
72388;SDS011;60566;48.062;9.930;2024-01-10T14:06:23;48.60;;;13.52;;
72388;SDS011;60566;48.062;9.930;2024-01-10T14:08:50;46.72;;;14.25;;
72388;SDS011;60566;48.062;9.930;2024-01-10T14:11:15;47.40;;;15.25;;
72388;SDS011;60566;48.062;9.930;2024-01-10T14:13:41;38.00;;;13.43;;
72388;SDS011;60566;48.062;9.930;2024-01-10T14:16:06;54.42;;;15.50;;